createdAt,value
2023-05-12T00:01:58.190Z,3.20
2023-05-12T00:04:26.163Z,3.50
2023-05-12T00:06:54.225Z,3.90
2023-05-12T00:09:22.180Z,3.40
2023-05-12T00:11:50.372Z,3.50
2023-05-12T00:14:19.969Z,3.70
2023-05-12T00:16:51.944Z,3.40
2023-05-12T00:19:21.235Z,3.60
2023-05-12T00:21:49.317Z,3.90
2023-05-12T00:24:17.282Z,3.20
2023-05-12T00:26:45.252Z,3.10
2023-05-12T00:29:13.326Z,3.70
2023-05-12T00:31:41.494Z,3.80
2023-05-12T00:34:09.876Z,3.60
2023-05-12T00:36:38.047Z,3.60
2023-05-12T00:39:06.324Z,3.30
2023-05-12T00:41:34.395Z,3.90
2023-05-12T00:44:02.410Z,3.60
2023-05-12T00:46:30.561Z,3.30
2023-05-12T00:48:59.224Z,3.40
2023-05-12T00:51:28.426Z,3.60
2023-05-12T00:53:57.627Z,3.70
2023-05-12T00:56:26.216Z,3.60
2023-05-12T00:58:54.208Z,3.90
2023-05-12T01:01:22.568Z,3.70
2023-05-12T01:03:54.119Z,3.30
2023-05-12T01:06:31.198Z,3.80
2023-05-12T01:09:00.985Z,3.50
2023-05-12T01:11:28.989Z,3.30
2023-05-12T01:13:57.103Z,3.80
2023-05-12T01:16:32.204Z,3.40
2023-05-12T01:19:06.490Z,3.20
2023-05-12T01:21:34.878Z,3.30
2023-05-12T01:24:07.905Z,3.50
2023-05-12T01:26:36.863Z,3.50
2023-05-12T01:29:06.295Z,3.40
2023-05-12T01:31:35.108Z,3.60
2023-05-12T01:34:03.447Z,3.10
2023-05-12T01:36:31.779Z,3.40
2023-05-12T01:39:00.008Z,3.40
2023-05-12T01:41:28.057Z,3.70
2023-05-12T01:43:56.243Z,3.70
2023-05-12T01:46:24.736Z,3.60
2023-05-12T01:48:53.953Z,3.90
2023-05-12T01:51:21.908Z,3.50
2023-05-12T01:53:50.074Z,3.70
2023-05-12T01:56:18.757Z,3.80
2023-05-12T01:58:47.286Z,3.40
2023-05-12T02:01:18.360Z,3.40
2023-05-12T02:03:46.508Z,4.00
2023-05-12T02:06:15.337Z,3.60
2023-05-12T02:08:43.621Z,3.60
2023-05-12T02:11:12.135Z,3.90
2023-05-12T02:13:40.075Z,3.40
2023-05-12T02:16:08.280Z,3.90
2023-05-12T02:18:37.026Z,3.80
2023-05-12T02:21:06.924Z,3.90
2023-05-12T02:23:35.307Z,3.90
2023-05-12T02:26:03.685Z,3.50
2023-05-12T02:28:31.990Z,4.00
2023-05-12T02:31:00.045Z,3.90
2023-05-12T02:33:28.204Z,4.10
2023-05-12T02:35:56.508Z,4.00
2023-05-12T02:38:25.006Z,3.50
2023-05-12T02:40:53.279Z,3.60
2023-05-12T02:43:22.312Z,4.40
2023-05-12T02:45:50.326Z,4.00
2023-05-12T02:48:18.628Z,4.30
2023-05-12T02:50:47.254Z,4.40
2023-05-12T02:53:15.664Z,4.10
2023-05-12T02:55:44.356Z,4.00
2023-05-12T02:58:12.414Z,3.70
2023-05-12T03:00:40.350Z,3.40
2023-05-12T03:03:08.443Z,3.00
2023-05-12T03:05:36.750Z,3.50
2023-05-12T03:08:05.203Z,3.80
2023-05-12T03:10:33.693Z,3.30
2023-05-12T03:13:01.872Z,3.70
2023-05-12T03:15:30.154Z,3.40
2023-05-12T03:17:58.263Z,3.60
2023-05-12T03:20:27.220Z,3.80
2023-05-12T03:22:55.381Z,3.40
2023-05-12T03:25:23.436Z,3.60
2023-05-12T03:27:51.772Z,3.30
2023-05-12T03:30:20.009Z,3.30
2023-05-12T03:32:48.350Z,3.40
2023-05-12T03:35:16.636Z,3.60
2023-05-12T03:37:45.152Z,3.50
2023-05-12T03:40:18.642Z,3.50
2023-05-12T03:42:47.311Z,4.00
2023-05-12T03:45:15.714Z,3.50
2023-05-12T03:47:43.815Z,3.70
2023-05-12T03:50:12.984Z,3.20
2023-05-12T03:52:41.590Z,3.30
2023-05-12T03:55:10.624Z,3.20
2023-05-12T03:57:38.781Z,3.10
2023-05-12T04:00:07.667Z,3.10
2023-05-12T04:02:44.462Z,3.00
2023-05-12T04:05:15.560Z,3.10
2023-05-12T04:07:43.578Z,2.80
2023-05-12T04:10:11.608Z,2.90
2023-05-12T04:12:39.861Z,3.30
2023-05-12T04:15:09.792Z,2.60
2023-05-12T04:17:37.909Z,3.10
2023-05-12T04:20:07.398Z,3.00
2023-05-12T04:22:35.845Z,3.10
2023-05-12T04:25:04.283Z,2.70
2023-05-12T04:27:32.228Z,2.50
2023-05-12T04:30:00.196Z,2.80
2023-05-12T04:32:28.514Z,2.90
2023-05-12T04:34:56.893Z,2.30
2023-05-12T04:37:25.135Z,3.00
2023-05-12T04:39:53.780Z,3.00
2023-05-12T04:42:22.153Z,3.00
2023-05-12T04:44:50.222Z,2.70
2023-05-12T04:47:18.317Z,2.40
2023-05-12T04:49:46.466Z,2.70
2023-05-12T04:52:15.872Z,2.70
2023-05-12T04:54:43.938Z,2.40
2023-05-12T04:57:11.884Z,2.40
2023-05-12T04:59:42.599Z,2.90
2023-05-12T05:02:12.014Z,2.60
2023-05-12T05:04:40.706Z,2.40
2023-05-12T05:07:08.924Z,2.70
2023-05-12T05:09:37.757Z,2.60
2023-05-12T05:12:07.309Z,2.50
2023-05-12T05:14:35.587Z,2.60
2023-05-12T05:17:03.999Z,2.60
2023-05-12T05:19:46.137Z,2.40
2023-05-12T05:22:20.487Z,2.60
2023-05-12T05:24:48.814Z,2.40
2023-05-12T05:27:17.011Z,2.70
2023-05-12T05:29:45.220Z,2.10
2023-05-12T05:32:13.393Z,2.40
2023-05-12T05:34:41.824Z,2.70
2023-05-12T05:37:10.150Z,2.30
2023-05-12T05:39:38.845Z,2.10
2023-05-12T05:42:07.187Z,2.40
2023-05-12T05:44:36.404Z,2.30
2023-05-12T05:47:06.194Z,2.00
2023-05-12T05:49:35.240Z,2.40
2023-05-12T05:52:03.636Z,2.00
2023-05-12T05:54:32.387Z,2.00
2023-05-12T05:57:02.396Z,2.20
2023-05-12T05:59:31.191Z,2.10
2023-05-12T06:01:59.528Z,2.10
2023-05-12T06:04:27.970Z,2.60
2023-05-12T06:06:56.120Z,2.00
2023-05-12T06:09:24.191Z,2.20
2023-05-12T06:11:52.292Z,2.20
2023-05-12T06:14:20.330Z,2.10
2023-05-12T06:16:49.016Z,2.20
2023-05-12T06:19:17.081Z,2.20
2023-05-12T06:21:45.174Z,2.50
2023-05-12T06:24:14.060Z,2.40
2023-05-12T06:26:43.052Z,2.10
2023-05-12T06:29:11.115Z,2.40
2023-05-12T06:31:39.184Z,2.40
2023-05-12T06:34:07.412Z,2.20
2023-05-12T06:36:35.411Z,2.40
2023-05-12T06:39:04.553Z,2.10
2023-05-12T06:41:33.824Z,2.30
2023-05-12T06:44:03.228Z,2.50
2023-05-12T06:46:31.388Z,2.50
2023-05-12T06:49:01.324Z,2.10
2023-05-12T06:51:29.296Z,1.80
2023-05-12T06:53:57.472Z,2.30
2023-05-12T06:56:25.641Z,1.80
2023-05-12T06:58:54.531Z,2.30
2023-05-12T07:01:22.823Z,2.00
2023-05-12T07:03:51.129Z,1.70
2023-05-12T07:06:19.667Z,1.90
2023-05-12T07:08:48.777Z,2.10
2023-05-12T07:11:23.194Z,1.80
2023-05-12T07:13:52.160Z,1.70
2023-05-12T07:16:20.277Z,2.20
2023-05-12T07:18:48.491Z,1.80
2023-05-12T07:21:16.670Z,2.30
2023-05-12T07:23:45.071Z,2.10
2023-05-12T07:26:13.348Z,2.10
2023-05-12T07:28:41.273Z,1.90
2023-05-12T07:31:09.528Z,1.90
2023-05-12T07:33:37.662Z,2.20
2023-05-12T07:36:06.256Z,1.90
2023-05-12T07:38:34.326Z,1.80
2023-05-12T07:41:02.309Z,1.80
2023-05-12T07:43:30.681Z,1.90
2023-05-12T07:46:01.090Z,1.80
2023-05-12T07:48:29.347Z,1.90
2023-05-12T07:50:57.574Z,2.00
2023-05-12T07:53:25.501Z,2.00
2023-05-12T07:55:53.483Z,2.00
2023-05-12T07:58:21.679Z,2.20
2023-05-12T08:00:50.063Z,1.70
2023-05-12T08:03:18.123Z,1.60
2023-05-12T08:05:46.598Z,1.60
2023-05-12T08:08:16.880Z,1.80
2023-05-12T08:10:45.205Z,1.90
2023-05-12T08:13:13.272Z,1.80
2023-05-12T08:15:41.543Z,2.10
2023-05-12T08:18:09.556Z,1.90
2023-05-12T08:20:37.593Z,1.80
2023-05-12T08:23:05.665Z,1.80
2023-05-12T08:25:36.086Z,2.10
2023-05-12T08:28:04.881Z,1.90
2023-05-12T08:30:33.024Z,2.10
2023-05-12T08:33:01.869Z,1.50
2023-05-12T08:35:30.738Z,2.10
2023-05-12T08:37:59.794Z,1.80
2023-05-12T08:40:31.268Z,1.80
2023-05-12T08:43:32.863Z,2.00
2023-05-12T08:46:02.676Z,1.90
2023-05-12T08:48:34.823Z,1.70
2023-05-12T08:51:07.104Z,1.60
2023-05-12T08:53:37.102Z,1.90
2023-05-12T08:58:42.973Z,1.80
2023-05-12T09:01:12.326Z,1.80
2023-05-12T09:03:40.592Z,1.80
2023-05-12T09:06:10.913Z,2.30
2023-05-12T09:08:40.884Z,2.30
2023-05-12T09:11:11.339Z,1.80
2023-05-12T09:13:46.401Z,1.70
2023-05-12T09:16:17.730Z,1.80
2023-05-12T09:18:52.875Z,1.90
2023-05-12T09:21:21.831Z,1.60
2023-05-12T09:23:52.989Z,1.60
2023-05-12T09:26:22.879Z,1.90
2023-05-12T09:28:53.936Z,2.00
2023-05-12T09:31:24.194Z,1.70
2023-05-12T09:33:52.509Z,2.00
2023-05-12T09:36:22.144Z,1.90
2023-05-12T09:39:19.509Z,2.10
2023-05-12T09:41:48.297Z,1.90
2023-05-12T09:44:17.378Z,1.90
2023-05-12T09:46:46.116Z,1.50
2023-05-12T09:49:19.406Z,1.90
2023-05-12T09:51:47.741Z,2.00
2023-05-12T09:54:25.236Z,3.00
2023-05-12T09:56:58.736Z,2.80
2023-05-12T09:59:39.323Z,1.90
2023-05-12T10:02:09.654Z,3.00
2023-05-12T10:04:51.048Z,2.70
2023-05-12T10:07:24.012Z,2.50
2023-05-12T10:09:55.229Z,2.10
2023-05-12T10:12:23.311Z,1.90
2023-05-12T10:14:52.308Z,1.90
2023-05-12T10:17:21.181Z,1.90
2023-05-12T10:19:50.589Z,1.60
2023-05-12T10:22:20.103Z,1.60
2023-05-12T10:24:49.148Z,2.00
2023-05-12T10:27:18.509Z,1.60
2023-05-12T10:29:48.288Z,1.80
2023-05-12T10:32:16.691Z,1.80
2023-05-12T10:34:44.987Z,1.70
2023-05-12T10:37:13.179Z,1.90
2023-05-12T10:39:49.292Z,1.50
2023-05-12T10:42:26.170Z,1.70
2023-05-12T10:44:56.314Z,1.60
2023-05-12T10:47:29.381Z,1.60
2023-05-12T10:50:00.847Z,1.50
2023-05-12T10:52:28.846Z,2.00
2023-05-12T10:55:08.318Z,1.60
2023-05-12T10:57:49.145Z,1.60
2023-05-12T11:00:23.252Z,1.80
2023-05-12T11:02:52.992Z,2.50
2023-05-12T11:05:22.604Z,1.60
2023-05-12T11:07:52.449Z,1.90
2023-05-12T11:10:21.926Z,2.10
2023-05-12T11:12:50.873Z,1.70
2023-05-12T11:15:19.362Z,1.90
2023-05-12T11:17:47.692Z,1.90
2023-05-12T11:20:28.113Z,2.10
2023-05-12T11:22:57.572Z,2.30
2023-05-12T11:25:29.886Z,2.00
2023-05-12T11:28:00.098Z,1.60
2023-05-12T11:30:28.334Z,2.10
2023-05-12T11:33:03.686Z,2.10
2023-05-12T11:35:32.712Z,1.90
2023-05-12T11:38:03.094Z,2.10
2023-05-12T11:40:31.496Z,2.50
2023-05-12T11:43:10.119Z,1.90
2023-05-12T11:45:38.319Z,2.10
2023-05-12T11:48:15.285Z,2.60
2023-05-12T11:50:48.868Z,2.30
2023-05-12T11:53:19.353Z,1.90
2023-05-12T11:55:49.626Z,2.10
2023-05-12T11:58:27.430Z,2.00
2023-05-12T12:00:57.327Z,2.30
2023-05-12T12:03:25.863Z,2.10
2023-05-12T12:06:00.903Z,2.30
2023-05-12T12:08:29.443Z,1.90
2023-05-12T12:10:57.688Z,2.40
2023-05-12T12:13:26.719Z,2.50
2023-05-12T12:15:54.958Z,1.80
2023-05-12T12:18:23.140Z,2.00
2023-05-12T12:20:51.241Z,1.90
2023-05-12T12:23:19.308Z,1.80
2023-05-12T12:25:47.280Z,2.00
2023-05-12T12:28:15.265Z,2.20
2023-05-12T12:30:43.321Z,2.20
2023-05-12T12:33:11.552Z,2.10
2023-05-12T12:35:39.713Z,2.20
2023-05-12T12:38:09.020Z,2.00
2023-05-12T12:40:37.050Z,2.10
2023-05-12T12:43:05.352Z,2.40
2023-05-12T12:45:33.497Z,2.10
2023-05-12T12:48:01.465Z,2.20
2023-05-12T12:50:30.402Z,2.30
2023-05-12T12:52:58.444Z,2.10
2023-05-12T12:55:26.454Z,2.10
2023-05-12T12:57:54.353Z,2.00
2023-05-12T13:00:23.816Z,2.60
2023-05-12T13:02:52.300Z,2.10
2023-05-12T13:05:21.074Z,2.40
2023-05-12T13:07:49.269Z,2.10
2023-05-12T13:10:17.388Z,2.20
2023-05-12T13:12:45.452Z,2.10
2023-05-12T13:15:13.928Z,2.30
2023-05-12T13:17:42.030Z,2.60
2023-05-12T13:20:10.769Z,2.60
2023-05-12T13:22:39.089Z,2.50
2023-05-12T13:25:08.231Z,2.10
2023-05-12T13:27:36.795Z,1.80
2023-05-12T13:30:09.138Z,2.10
2023-05-12T13:32:38.959Z,2.50
2023-05-12T13:35:07.518Z,2.00
2023-05-12T13:37:35.468Z,2.40
2023-05-12T13:40:03.827Z,2.30
2023-05-12T13:42:32.050Z,2.20
2023-05-12T13:45:00.068Z,2.40
2023-05-12T13:47:28.242Z,3.00
2023-05-12T13:49:57.486Z,2.40
2023-05-12T13:52:25.409Z,2.40
2023-05-12T13:54:53.420Z,2.30
2023-05-12T13:57:21.504Z,2.20
2023-05-12T13:59:50.757Z,2.50
2023-05-12T14:02:18.869Z,2.70
2023-05-12T14:04:47.093Z,2.70
2023-05-12T14:07:15.526Z,2.50
2023-05-12T14:09:43.605Z,2.40
2023-05-12T14:12:11.666Z,2.30
2023-05-12T14:14:39.940Z,2.60
2023-05-12T14:17:07.894Z,2.20
2023-05-12T14:19:36.370Z,2.50
2023-05-12T14:22:12.497Z,2.00
2023-05-12T14:24:47.071Z,2.20
2023-05-12T14:27:15.180Z,2.30
2023-05-12T14:29:43.245Z,2.40
2023-05-12T14:32:11.283Z,2.80
2023-05-12T14:34:39.672Z,2.10
2023-05-12T14:37:07.841Z,2.10
2023-05-12T14:39:35.906Z,2.40
2023-05-12T14:42:04.030Z,2.30
2023-05-12T14:44:32.513Z,2.40
2023-05-12T14:47:00.648Z,2.80
2023-05-12T14:49:28.719Z,2.50
2023-05-12T14:51:56.783Z,3.30
2023-05-12T14:54:26.007Z,2.40
2023-05-12T14:56:54.569Z,2.50
2023-05-12T14:59:22.752Z,2.90
2023-05-12T15:01:51.005Z,2.60
2023-05-12T15:04:19.170Z,2.50
2023-05-12T15:06:47.091Z,3.00
2023-05-12T15:09:15.226Z,3.10
2023-05-12T15:11:45.865Z,3.00
2023-05-12T15:14:13.934Z,2.20
2023-05-12T15:16:42.391Z,2.70
2023-05-12T15:19:10.609Z,2.50
2023-05-12T15:21:38.709Z,2.50
2023-05-12T15:24:07.062Z,2.30
2023-05-12T15:26:36.243Z,2.70
2023-05-12T15:29:05.660Z,2.80
2023-05-12T15:31:33.895Z,3.00
2023-05-12T15:34:01.912Z,2.70
2023-05-12T15:36:30.975Z,2.70
2023-05-12T15:38:59.260Z,2.50
2023-05-12T15:41:27.328Z,2.60
2023-05-12T15:43:55.407Z,3.00
2023-05-12T15:46:24.384Z,2.70
2023-05-12T15:48:52.588Z,2.50
2023-05-12T15:51:20.697Z,2.40
2023-05-12T15:53:50.983Z,2.80
2023-05-12T15:56:19.080Z,2.80
2023-05-12T15:58:47.208Z,2.70
2023-05-12T16:01:15.188Z,2.90
2023-05-12T16:03:43.406Z,2.80
2023-05-12T16:06:11.522Z,2.60
2023-05-12T16:08:39.807Z,3.20
2023-05-12T16:11:07.975Z,3.00
2023-05-12T16:13:36.162Z,2.90
2023-05-12T16:16:05.394Z,4.10
2023-05-12T16:18:34.360Z,3.00
2023-05-12T16:21:02.925Z,3.60
2023-05-12T16:23:31.170Z,3.60
2023-05-12T16:25:59.495Z,3.20
2023-05-12T16:28:27.542Z,2.60
2023-05-12T16:30:56.654Z,2.70
2023-05-12T16:33:24.813Z,3.30
2023-05-12T16:35:52.990Z,3.20
2023-05-12T16:38:21.381Z,2.40
2023-05-12T16:40:49.419Z,2.90
2023-05-12T16:43:17.528Z,2.90
2023-05-12T16:45:45.870Z,3.50
2023-05-12T16:48:14.074Z,2.90
2023-05-12T16:50:42.132Z,3.20
2023-05-12T16:53:10.073Z,3.10
2023-05-12T16:55:38.174Z,3.20
2023-05-12T16:58:07.473Z,3.40
2023-05-12T17:00:35.498Z,3.20
2023-05-12T17:03:04.891Z,3.20
2023-05-12T17:05:34.071Z,3.10
2023-05-12T17:08:02.233Z,3.40
2023-05-12T17:10:30.342Z,3.50
2023-05-12T17:12:58.680Z,2.90
2023-05-12T17:15:27.273Z,3.40
2023-05-12T17:17:55.426Z,3.40
2023-05-12T17:20:23.865Z,3.20
2023-05-12T17:22:51.986Z,3.40
2023-05-12T17:25:21.494Z,3.10
2023-05-12T17:27:50.176Z,3.10
2023-05-12T17:30:18.750Z,3.00
2023-05-12T17:32:46.886Z,3.50
2023-05-12T17:35:15.116Z,3.20
2023-05-12T17:37:43.060Z,3.10
2023-05-12T17:40:17.128Z,3.20
2023-05-12T17:42:45.370Z,3.40
2023-05-12T17:45:16.612Z,3.20
2023-05-12T17:47:45.680Z,3.20
2023-05-12T17:50:15.320Z,3.40
2023-05-12T17:52:43.675Z,3.20
2023-05-12T17:55:12.478Z,2.90
2023-05-12T17:57:40.656Z,3.00
2023-05-12T18:00:11.837Z,2.90
2023-05-12T18:02:42.877Z,2.70
2023-05-12T18:05:11.228Z,3.20
2023-05-12T18:07:39.393Z,3.20
2023-05-12T18:10:11.227Z,3.10
2023-05-12T18:12:39.651Z,2.90
2023-05-12T18:15:09.108Z,3.60
2023-05-12T18:17:37.662Z,3.10
2023-05-12T18:20:06.775Z,3.20
2023-05-12T18:22:35.130Z,2.80
2023-05-12T18:25:03.579Z,2.80
2023-05-12T18:27:31.531Z,3.00
2023-05-12T18:29:59.520Z,2.90
2023-05-12T18:32:27.596Z,3.10
2023-05-12T18:34:55.864Z,2.70
2023-05-12T18:37:24.337Z,2.90
2023-05-12T18:39:54.492Z,2.80
2023-05-12T18:42:23.143Z,3.10
2023-05-12T18:44:51.583Z,2.90
2023-05-12T18:47:20.414Z,3.20
2023-05-12T18:49:48.381Z,3.00
2023-05-12T18:52:16.455Z,2.90
2023-05-12T18:54:48.089Z,2.80
2023-05-12T18:57:17.476Z,2.80
2023-05-12T18:59:45.699Z,3.30
2023-05-12T19:02:13.762Z,2.90
2023-05-12T19:04:42.202Z,3.00
2023-05-12T19:07:10.406Z,3.20
2023-05-12T19:09:38.345Z,3.10
2023-05-12T19:12:10.745Z,3.30
2023-05-12T19:14:39.879Z,2.90
2023-05-12T19:17:08.026Z,3.20
2023-05-12T19:19:35.970Z,3.20
2023-05-12T19:22:04.457Z,3.30
2023-05-12T19:24:32.756Z,3.20
2023-05-12T19:27:01.488Z,3.00
2023-05-12T19:29:29.522Z,3.20
2023-05-12T19:31:57.998Z,3.10
2023-05-12T19:34:26.372Z,2.90
2023-05-12T19:36:56.204Z,3.20
2023-05-12T19:39:24.374Z,3.00
2023-05-12T19:41:52.428Z,3.20
2023-05-12T19:44:20.681Z,3.10
2023-05-12T19:46:48.833Z,3.10
2023-05-12T19:49:16.852Z,4.00
2023-05-12T19:51:44.930Z,3.40
2023-05-12T19:54:13.647Z,3.40
2023-05-12T19:56:41.682Z,3.00
2023-05-12T19:59:09.712Z,3.70
2023-05-12T20:01:38.167Z,3.30
2023-05-12T20:04:06.209Z,3.30
2023-05-12T20:06:34.243Z,3.30
2023-05-12T20:09:02.336Z,3.30
2023-05-12T20:11:30.411Z,3.60
2023-05-12T20:13:58.354Z,3.20
2023-05-12T20:16:26.953Z,3.20
2023-05-12T20:18:55.063Z,3.30
2023-05-12T20:21:23.220Z,3.10
2023-05-12T20:23:51.137Z,3.30
2023-05-12T20:26:19.129Z,3.20
2023-05-12T20:28:47.116Z,2.90
2023-05-12T20:31:15.206Z,3.40
2023-05-12T20:33:43.460Z,3.00
2023-05-12T20:36:11.434Z,3.10
2023-05-12T20:38:40.038Z,2.80
2023-05-12T20:41:08.708Z,2.80
2023-05-12T20:43:36.676Z,3.10
2023-05-12T20:46:05.144Z,2.80
2023-05-12T20:48:33.741Z,2.70
2023-05-12T20:51:11.653Z,2.60
2023-05-12T20:53:39.985Z,3.00
2023-05-12T20:56:08.640Z,3.30
2023-05-12T20:58:36.962Z,3.30
2023-05-12T21:01:05.369Z,3.30
2023-05-12T21:03:34.007Z,3.40
2023-05-12T21:06:02.322Z,3.20
2023-05-12T21:08:30.405Z,4.20
2023-05-12T21:10:59.699Z,3.60
2023-05-12T21:13:27.871Z,3.80
2023-05-12T21:15:56.558Z,3.60
2023-05-12T21:18:24.555Z,3.60
2023-05-12T21:20:52.701Z,3.30
2023-05-12T21:23:20.787Z,3.10
2023-05-12T21:25:49.378Z,3.70
2023-05-12T21:28:17.967Z,3.50
2023-05-12T21:30:46.174Z,3.30
2023-05-12T21:33:14.591Z,3.80
2023-05-12T21:35:42.676Z,3.00
2023-05-12T21:38:10.750Z,3.00
2023-05-12T21:40:39.013Z,3.20
2023-05-12T21:43:07.128Z,3.30
2023-05-12T21:45:35.356Z,3.40
2023-05-12T21:48:03.373Z,3.40
2023-05-12T21:50:31.506Z,3.10
2023-05-12T21:52:59.569Z,3.30
2023-05-12T21:55:27.607Z,3.20
2023-05-12T21:57:55.578Z,2.80
2023-05-12T22:00:24.008Z,3.00
2023-05-12T22:02:52.699Z,3.00
2023-05-12T22:05:20.828Z,3.20
2023-05-12T22:07:48.698Z,3.20
2023-05-12T22:10:16.910Z,2.80
2023-05-12T22:12:46.013Z,2.80
2023-05-12T22:15:14.368Z,2.80
2023-05-12T22:17:42.485Z,3.20
2023-05-12T22:20:11.372Z,3.10
2023-05-12T22:22:39.451Z,3.70
2023-05-12T22:25:08.187Z,3.50
2023-05-12T22:27:37.502Z,3.20
2023-05-12T22:30:06.489Z,3.30
2023-05-12T22:32:34.444Z,3.20
2023-05-12T22:35:02.657Z,3.30
2023-05-12T22:37:30.751Z,4.00
2023-05-12T22:39:58.879Z,3.50
2023-05-12T22:42:26.815Z,3.80
2023-05-12T22:44:55.130Z,3.50
2023-05-12T22:47:23.108Z,3.30
2023-05-12T22:49:51.171Z,2.90
2023-05-12T22:52:19.346Z,3.00
2023-05-12T22:54:47.285Z,2.80
2023-05-12T22:57:15.394Z,3.30
2023-05-12T22:59:43.449Z,3.80
2023-05-12T23:02:11.682Z,3.60
2023-05-12T23:04:39.935Z,3.40
2023-05-12T23:07:09.450Z,3.40
2023-05-12T23:09:37.342Z,3.20
2023-05-12T23:12:05.856Z,3.20
2023-05-12T23:14:34.141Z,3.30
2023-05-12T23:17:02.295Z,2.90
2023-05-12T23:19:30.565Z,3.10
2023-05-12T23:21:58.465Z,2.90
2023-05-12T23:24:26.423Z,3.00
2023-05-12T23:26:54.408Z,3.30
2023-05-12T23:29:22.562Z,2.90
2023-05-12T23:31:50.687Z,3.50
2023-05-12T23:34:19.020Z,2.90
2023-05-12T23:36:47.176Z,3.20
2023-05-12T23:39:15.293Z,3.60
2023-05-12T23:41:43.332Z,4.20
2023-05-12T23:44:12.225Z,3.70
2023-05-12T23:46:40.257Z,3.70
2023-05-12T23:49:08.390Z,3.00
2023-05-12T23:51:36.548Z,2.80
2023-05-12T23:54:04.637Z,2.60
2023-05-12T23:56:32.681Z,2.80
2023-05-12T23:59:00.685Z,2.50
